sensor_id;sensor_type;location;lat;lon;timestamp;P1;durP1;ratioP1;P2;durP2;ratioP2
23586;SDS011;11971;51.148;4.104;2022-07-17T00:00:23;6.85;;;3.97;;
23586;SDS011;11971;51.148;4.104;2022-07-17T00:02:51;7.53;;;4.05;;
23586;SDS011;11971;51.148;4.104;2022-07-17T00:05:18;6.28;;;4.40;;
23586;SDS011;11971;51.148;4.104;2022-07-17T00:07:46;10.18;;;5.13;;
23586;SDS011;11971;51.148;4.104;2022-07-17T00:10:13;12.68;;;5.63;;
23586;SDS011;11971;51.148;4.104;2022-07-17T00:12:41;8.13;;;5.68;;
23586;SDS011;11971;51.148;4.104;2022-07-17T00:15:10;10.68;;;5.53;;
23586;SDS011;11971;51.148;4.104;2022-07-17T00:20:05;10.65;;;5.28;;
23586;SDS011;11971;51.148;4.104;2022-07-17T00:22:32;10.25;;;6.00;;
23586;SDS011;11971;51.148;4.104;2022-07-17T00:25:00;10.55;;;5.65;;
23586;SDS011;11971;51.148;4.104;2022-07-17T00:27:27;8.45;;;5.80;;
23586;SDS011;11971;51.148;4.104;2022-07-17T00:29:54;10.75;;;4.95;;
23586;SDS011;11971;51.148;4.104;2022-07-17T00:32:23;12.50;;;5.10;;
23586;SDS011;11971;51.148;4.104;2022-07-17T00:34:50;10.43;;;5.53;;
23586;SDS011;11971;51.148;4.104;2022-07-17T00:37:17;9.38;;;4.75;;
23586;SDS011;11971;51.148;4.104;2022-07-17T00:39:45;9.50;;;5.28;;
23586;SDS011;11971;51.148;4.104;2022-07-17T00:42:12;7.63;;;5.28;;
23586;SDS011;11971;51.148;4.104;2022-07-17T00:44:41;9.38;;;5.57;;
23586;SDS011;11971;51.148;4.104;2022-07-17T00:47:12;6.68;;;4.78;;
23586;SDS011;11971;51.148;4.104;2022-07-17T00:49:41;7.47;;;4.63;;
23586;SDS011;11971;51.148;4.104;2022-07-17T00:52:08;10.32;;;5.35;;
23586;SDS011;11971;51.148;4.104;2022-07-17T00:54:36;8.80;;;5.38;;
23586;SDS011;11971;51.148;4.104;2022-07-17T00:57:04;9.25;;;5.10;;
23586;SDS011;11971;51.148;4.104;2022-07-17T00:59:33;10.05;;;5.05;;
23586;SDS011;11971;51.148;4.104;2022-07-17T01:02:02;6.90;;;4.85;;
23586;SDS011;11971;51.148;4.104;2022-07-17T01:04:29;8.80;;;5.07;;
23586;SDS011;11971;51.148;4.104;2022-07-17T01:06:58;7.68;;;4.60;;
23586;SDS011;11971;51.148;4.104;2022-07-17T01:09:26;6.68;;;4.95;;
23586;SDS011;11971;51.148;4.104;2022-07-17T01:11:53;11.13;;;5.20;;
23586;SDS011;11971;51.148;4.104;2022-07-17T01:14:21;7.05;;;4.90;;
23586;SDS011;11971;51.148;4.104;2022-07-17T01:16:49;8.25;;;4.90;;
23586;SDS011;11971;51.148;4.104;2022-07-17T01:19:16;7.57;;;4.90;;
23586;SDS011;11971;51.148;4.104;2022-07-17T01:21:45;8.73;;;4.88;;
23586;SDS011;11971;51.148;4.104;2022-07-17T01:24:13;7.00;;;4.57;;
23586;SDS011;11971;51.148;4.104;2022-07-17T01:26:40;10.68;;;4.97;;
23586;SDS011;11971;51.148;4.104;2022-07-17T01:29:08;8.77;;;5.07;;
23586;SDS011;11971;51.148;4.104;2022-07-17T01:31:36;8.00;;;4.97;;
23586;SDS011;11971;51.148;4.104;2022-07-17T01:34:03;9.00;;;4.85;;
23586;SDS011;11971;51.148;4.104;2022-07-17T01:36:32;9.88;;;5.00;;
23586;SDS011;11971;51.148;4.104;2022-07-17T01:39:01;10.80;;;4.90;;
23586;SDS011;11971;51.148;4.104;2022-07-17T01:41:28;7.00;;;4.70;;
23586;SDS011;11971;51.148;4.104;2022-07-17T01:43:55;8.57;;;5.45;;
23586;SDS011;11971;51.148;4.104;2022-07-17T01:46:23;11.30;;;5.23;;
23586;SDS011;11971;51.148;4.104;2022-07-17T01:48:51;9.40;;;4.32;;
23586;SDS011;11971;51.148;4.104;2022-07-17T01:51:18;12.35;;;5.05;;
23586;SDS011;11971;51.148;4.104;2022-07-17T01:53:46;10.05;;;4.32;;
23586;SDS011;11971;51.148;4.104;2022-07-17T01:56:15;13.25;;;5.05;;
23586;SDS011;11971;51.148;4.104;2022-07-17T01:58:42;10.35;;;4.72;;
23586;SDS011;11971;51.148;4.104;2022-07-17T02:01:09;10.23;;;4.88;;
23586;SDS011;11971;51.148;4.104;2022-07-17T02:03:36;8.30;;;4.30;;
23586;SDS011;11971;51.148;4.104;2022-07-17T02:06:04;10.90;;;4.65;;
23586;SDS011;11971;51.148;4.104;2022-07-17T02:08:31;11.93;;;4.80;;
23586;SDS011;11971;51.148;4.104;2022-07-17T02:10:58;9.25;;;4.60;;
23586;SDS011;11971;51.148;4.104;2022-07-17T02:13:27;9.68;;;4.70;;
23586;SDS011;11971;51.148;4.104;2022-07-17T02:15:54;8.68;;;4.55;;
23586;SDS011;11971;51.148;4.104;2022-07-17T02:18:21;11.90;;;4.97;;
23586;SDS011;11971;51.148;4.104;2022-07-17T02:20:49;10.57;;;4.63;;
23586;SDS011;11971;51.148;4.104;2022-07-17T02:23:16;12.40;;;4.95;;
23586;SDS011;11971;51.148;4.104;2022-07-17T02:25:43;7.18;;;4.88;;
23586;SDS011;11971;51.148;4.104;2022-07-17T02:28:10;6.53;;;4.57;;
23586;SDS011;11971;51.148;4.104;2022-07-17T02:30:39;9.25;;;4.72;;
23586;SDS011;11971;51.148;4.104;2022-07-17T02:33:06;6.85;;;4.97;;
23586;SDS011;11971;51.148;4.104;2022-07-17T02:35:34;9.43;;;4.90;;
23586;SDS011;11971;51.148;4.104;2022-07-17T02:38:01;9.48;;;5.30;;
23586;SDS011;11971;51.148;4.104;2022-07-17T02:40:28;9.20;;;4.72;;
23586;SDS011;11971;51.148;4.104;2022-07-17T02:42:56;11.95;;;5.10;;
23586;SDS011;11971;51.148;4.104;2022-07-17T02:45:23;7.03;;;4.50;;
23586;SDS011;11971;51.148;4.104;2022-07-17T02:47:52;7.38;;;4.43;;
23586;SDS011;11971;51.148;4.104;2022-07-17T02:52:46;7.70;;;4.60;;
23586;SDS011;11971;51.148;4.104;2022-07-17T02:55:14;10.02;;;4.75;;
23586;SDS011;11971;51.148;4.104;2022-07-17T02:57:42;7.53;;;4.70;;
23586;SDS011;11971;51.148;4.104;2022-07-17T03:05:09;14.13;;;5.30;;
23586;SDS011;11971;51.148;4.104;2022-07-17T03:07:36;11.70;;;5.90;;
23586;SDS011;11971;51.148;4.104;2022-07-17T03:10:04;9.45;;;5.18;;
23586;SDS011;11971;51.148;4.104;2022-07-17T03:12:31;10.98;;;5.57;;
23586;SDS011;11971;51.148;4.104;2022-07-17T03:14:59;8.82;;;5.55;;
23586;SDS011;11971;51.148;4.104;2022-07-17T03:17:26;10.23;;;5.65;;
23586;SDS011;11971;51.148;4.104;2022-07-17T03:19:54;9.40;;;5.50;;
23586;SDS011;11971;51.148;4.104;2022-07-17T03:22:22;11.32;;;5.22;;
23586;SDS011;11971;51.148;4.104;2022-07-17T03:24:50;11.10;;;5.78;;
23586;SDS011;11971;51.148;4.104;2022-07-17T03:27:17;11.63;;;6.15;;
23586;SDS011;11971;51.148;4.104;2022-07-17T03:29:44;9.05;;;5.40;;
23586;SDS011;11971;51.148;4.104;2022-07-17T03:32:11;8.02;;;5.22;;
23586;SDS011;11971;51.148;4.104;2022-07-17T03:34:39;8.93;;;5.60;;
23586;SDS011;11971;51.148;4.104;2022-07-17T03:37:07;9.18;;;5.40;;
23586;SDS011;11971;51.148;4.104;2022-07-17T03:39:35;9.20;;;5.68;;
23586;SDS011;11971;51.148;4.104;2022-07-17T03:42:03;9.27;;;6.28;;
23586;SDS011;11971;51.148;4.104;2022-07-17T03:44:30;10.68;;;6.25;;
23586;SDS011;11971;51.148;4.104;2022-07-17T03:46:57;10.38;;;6.13;;
23586;SDS011;11971;51.148;4.104;2022-07-17T03:49:25;9.30;;;6.00;;
23586;SDS011;11971;51.148;4.104;2022-07-17T03:51:52;12.70;;;5.70;;
23586;SDS011;11971;51.148;4.104;2022-07-17T03:54:20;9.93;;;6.00;;
23586;SDS011;11971;51.148;4.104;2022-07-17T03:56:48;11.18;;;5.75;;
23586;SDS011;11971;51.148;4.104;2022-07-17T03:59:16;13.18;;;5.78;;
23586;SDS011;11971;51.148;4.104;2022-07-17T04:01:43;9.20;;;5.60;;
23586;SDS011;11971;51.148;4.104;2022-07-17T04:04:10;8.88;;;5.35;;
23586;SDS011;11971;51.148;4.104;2022-07-17T04:06:38;11.77;;;5.53;;
23586;SDS011;11971;51.148;4.104;2022-07-17T04:09:05;8.73;;;5.25;;
23586;SDS011;11971;51.148;4.104;2022-07-17T04:11:32;9.23;;;5.35;;
23586;SDS011;11971;51.148;4.104;2022-07-17T04:14:01;9.27;;;5.00;;
23586;SDS011;11971;51.148;4.104;2022-07-17T04:16:28;10.68;;;5.40;;
23586;SDS011;11971;51.148;4.104;2022-07-17T04:18:55;9.32;;;5.32;;
23586;SDS011;11971;51.148;4.104;2022-07-17T04:21:23;13.27;;;5.20;;
23586;SDS011;11971;51.148;4.104;2022-07-17T04:23:50;9.07;;;4.80;;
23586;SDS011;11971;51.148;4.104;2022-07-17T04:26:17;11.65;;;4.68;;
23586;SDS011;11971;51.148;4.104;2022-07-17T04:28:45;12.02;;;5.13;;
23586;SDS011;11971;51.148;4.104;2022-07-17T04:31:14;11.48;;;5.25;;
23586;SDS011;11971;51.148;4.104;2022-07-17T04:33:41;12.57;;;5.35;;
23586;SDS011;11971;51.148;4.104;2022-07-17T04:36:08;12.52;;;4.80;;
23586;SDS011;11971;51.148;4.104;2022-07-17T04:38:36;9.57;;;4.30;;
23586;SDS011;11971;51.148;4.104;2022-07-17T04:41:03;10.95;;;4.97;;
23586;SDS011;11971;51.148;4.104;2022-07-17T04:43:30;11.60;;;5.50;;
23586;SDS011;11971;51.148;4.104;2022-07-17T04:45:58;11.85;;;5.30;;
23586;SDS011;11971;51.148;4.104;2022-07-17T04:48:26;16.70;;;5.47;;
23586;SDS011;11971;51.148;4.104;2022-07-17T04:50:53;9.23;;;5.03;;
23586;SDS011;11971;51.148;4.104;2022-07-17T04:53:21;9.73;;;4.82;;
23586;SDS011;11971;51.148;4.104;2022-07-17T04:55:48;9.73;;;5.18;;
23586;SDS011;11971;51.148;4.104;2022-07-17T04:58:15;12.07;;;5.28;;
23586;SDS011;11971;51.148;4.104;2022-07-17T05:00:43;12.13;;;5.07;;
23586;SDS011;11971;51.148;4.104;2022-07-17T05:03:11;9.10;;;5.13;;
23586;SDS011;11971;51.148;4.104;2022-07-17T05:05:40;11.43;;;5.45;;
23586;SDS011;11971;51.148;4.104;2022-07-17T05:08:07;12.05;;;5.65;;
23586;SDS011;11971;51.148;4.104;2022-07-17T05:10:34;10.60;;;5.65;;
23586;SDS011;11971;51.148;4.104;2022-07-17T05:13:01;14.55;;;5.95;;
23586;SDS011;11971;51.148;4.104;2022-07-17T05:15:29;11.32;;;5.63;;
23586;SDS011;11971;51.148;4.104;2022-07-17T05:17:56;14.23;;;6.30;;
23586;SDS011;11971;51.148;4.104;2022-07-17T05:20:23;16.10;;;5.70;;
23586;SDS011;11971;51.148;4.104;2022-07-17T05:22:52;11.68;;;5.30;;
23586;SDS011;11971;51.148;4.104;2022-07-17T05:25:20;14.02;;;5.82;;
23586;SDS011;11971;51.148;4.104;2022-07-17T05:27:47;13.13;;;5.93;;
23586;SDS011;11971;51.148;4.104;2022-07-17T05:30:14;15.23;;;5.38;;
23586;SDS011;11971;51.148;4.104;2022-07-17T05:32:41;8.30;;;5.07;;
23586;SDS011;11971;51.148;4.104;2022-07-17T05:35:08;13.20;;;4.80;;
23586;SDS011;11971;51.148;4.104;2022-07-17T05:37:36;9.43;;;4.75;;
23586;SDS011;11971;51.148;4.104;2022-07-17T05:40:05;14.38;;;4.57;;
23586;SDS011;11971;51.148;4.104;2022-07-17T05:42:33;10.90;;;4.30;;
23586;SDS011;11971;51.148;4.104;2022-07-17T05:45:00;8.43;;;3.95;;
23586;SDS011;11971;51.148;4.104;2022-07-17T05:47:27;7.43;;;3.83;;
23586;SDS011;11971;51.148;4.104;2022-07-17T05:49:54;10.98;;;3.80;;
23586;SDS011;11971;51.148;4.104;2022-07-17T05:52:22;6.05;;;3.58;;
23586;SDS011;11971;51.148;4.104;2022-07-17T05:54:49;10.65;;;4.38;;
23586;SDS011;11971;51.148;4.104;2022-07-17T05:57:18;10.25;;;3.58;;
23586;SDS011;11971;51.148;4.104;2022-07-17T05:59:45;10.80;;;3.92;;
23586;SDS011;11971;51.148;4.104;2022-07-17T06:02:12;10.63;;;3.85;;
23586;SDS011;11971;51.148;4.104;2022-07-17T06:04:39;12.27;;;4.22;;
23586;SDS011;11971;51.148;4.104;2022-07-17T06:07:07;10.65;;;3.80;;
23586;SDS011;11971;51.148;4.104;2022-07-17T06:09:34;8.00;;;3.70;;
23586;SDS011;11971;51.148;4.104;2022-07-17T06:12:02;7.85;;;3.35;;
23586;SDS011;11971;51.148;4.104;2022-07-17T06:14:31;7.53;;;3.78;;
23586;SDS011;11971;51.148;4.104;2022-07-17T06:16:58;9.25;;;3.47;;
23586;SDS011;11971;51.148;4.104;2022-07-17T06:19:25;9.20;;;3.42;;
23586;SDS011;11971;51.148;4.104;2022-07-17T06:21:53;8.93;;;3.42;;
23586;SDS011;11971;51.148;4.104;2022-07-17T06:24:20;9.48;;;3.40;;
23586;SDS011;11971;51.148;4.104;2022-07-17T06:26:47;10.02;;;3.33;;
23586;SDS011;11971;51.148;4.104;2022-07-17T06:29:15;12.70;;;3.75;;
23586;SDS011;11971;51.148;4.104;2022-07-17T06:31:44;8.00;;;3.17;;
23586;SDS011;11971;51.148;4.104;2022-07-17T06:34:11;6.70;;;3.45;;
23586;SDS011;11971;51.148;4.104;2022-07-17T06:36:39;6.63;;;3.10;;
23586;SDS011;11971;51.148;4.104;2022-07-17T06:39:06;8.80;;;2.83;;
23586;SDS011;11971;51.148;4.104;2022-07-17T06:41:33;7.78;;;2.40;;
23586;SDS011;11971;51.148;4.104;2022-07-17T06:44:01;6.53;;;2.67;;
23586;SDS011;11971;51.148;4.104;2022-07-17T06:46:28;6.07;;;2.42;;
23586;SDS011;11971;51.148;4.104;2022-07-17T06:48:56;8.27;;;2.42;;
23586;SDS011;11971;51.148;4.104;2022-07-17T06:51:24;5.60;;;2.40;;
23586;SDS011;11971;51.148;4.104;2022-07-17T06:53:51;8.98;;;2.97;;
23586;SDS011;11971;51.148;4.104;2022-07-17T06:56:18;5.95;;;2.70;;
23586;SDS011;11971;51.148;4.104;2022-07-17T06:58:46;6.05;;;2.28;;
23586;SDS011;11971;51.148;4.104;2022-07-17T07:01:13;8.60;;;2.45;;
23586;SDS011;11971;51.148;4.104;2022-07-17T07:03:40;6.18;;;2.63;;
23586;SDS011;11971;51.148;4.104;2022-07-17T07:06:09;6.97;;;2.50;;
23586;SDS011;11971;51.148;4.104;2022-07-17T07:08:36;8.20;;;2.75;;
23586;SDS011;11971;51.148;4.104;2022-07-17T07:11:04;5.88;;;2.38;;
23586;SDS011;11971;51.148;4.104;2022-07-17T07:13:31;5.72;;;2.30;;
23586;SDS011;11971;51.148;4.104;2022-07-17T07:15:58;4.63;;;2.42;;
23586;SDS011;11971;51.148;4.104;2022-07-17T07:18:26;4.93;;;2.30;;
23586;SDS011;11971;51.148;4.104;2022-07-17T07:20:53;6.30;;;1.95;;
23586;SDS011;11971;51.148;4.104;2022-07-17T07:23:22;5.25;;;2.20;;
23586;SDS011;11971;51.148;4.104;2022-07-17T07:25:49;6.57;;;2.50;;
23586;SDS011;11971;51.148;4.104;2022-07-17T07:28:16;11.10;;;2.42;;
23586;SDS011;11971;51.148;4.104;2022-07-17T07:30:44;5.82;;;2.38;;
23586;SDS011;11971;51.148;4.104;2022-07-17T07:33:11;7.25;;;2.47;;
23586;SDS011;11971;51.148;4.104;2022-07-17T07:35:38;4.60;;;2.30;;
23586;SDS011;11971;51.148;4.104;2022-07-17T07:38:06;8.95;;;2.70;;
23586;SDS011;11971;51.148;4.104;2022-07-17T07:40:34;5.60;;;2.13;;
23586;SDS011;11971;51.148;4.104;2022-07-17T07:43:01;5.28;;;2.13;;
23586;SDS011;11971;51.148;4.104;2022-07-17T07:45:29;7.60;;;1.95;;
23586;SDS011;11971;51.148;4.104;2022-07-17T07:47:57;4.80;;;1.75;;
23586;SDS011;11971;51.148;4.104;2022-07-17T07:50:24;7.00;;;2.13;;
23586;SDS011;11971;51.148;4.104;2022-07-17T07:52:53;8.80;;;1.70;;
23586;SDS011;11971;51.148;4.104;2022-07-17T07:55:20;6.70;;;1.95;;
23586;SDS011;11971;51.148;4.104;2022-07-17T07:57:49;5.75;;;1.83;;
23586;SDS011;11971;51.148;4.104;2022-07-17T08:00:16;3.75;;;1.48;;
23586;SDS011;11971;51.148;4.104;2022-07-17T08:02:44;7.38;;;1.65;;
23586;SDS011;11971;51.148;4.104;2022-07-17T08:05:11;5.50;;;1.90;;
23586;SDS011;11971;51.148;4.104;2022-07-17T08:07:38;9.25;;;1.95;;
23586;SDS011;11971;51.148;4.104;2022-07-17T08:10:06;4.57;;;1.90;;
23586;SDS011;11971;51.148;4.104;2022-07-17T08:12:34;6.05;;;2.00;;
23586;SDS011;11971;51.148;4.104;2022-07-17T08:15:03;8.15;;;2.00;;
23586;SDS011;11971;51.148;4.104;2022-07-17T08:19:57;4.78;;;1.75;;
23586;SDS011;11971;51.148;4.104;2022-07-17T08:22:25;9.77;;;1.98;;
23586;SDS011;11971;51.148;4.104;2022-07-17T08:24:52;7.65;;;1.98;;
23586;SDS011;11971;51.148;4.104;2022-07-17T08:27:20;6.10;;;2.17;;
23586;SDS011;11971;51.148;4.104;2022-07-17T08:29:47;7.57;;;1.95;;
23586;SDS011;11971;51.148;4.104;2022-07-17T08:32:16;9.70;;;2.13;;
23586;SDS011;11971;51.148;4.104;2022-07-17T08:34:43;7.53;;;1.90;;
23586;SDS011;11971;51.148;4.104;2022-07-17T08:37:12;5.85;;;1.80;;
23586;SDS011;11971;51.148;4.104;2022-07-17T08:39:39;8.00;;;2.30;;
23586;SDS011;11971;51.148;4.104;2022-07-17T08:42:06;3.63;;;1.40;;
23586;SDS011;11971;51.148;4.104;2022-07-17T08:44:34;5.13;;;1.75;;
23586;SDS011;11971;51.148;4.104;2022-07-17T08:47:01;5.07;;;1.50;;
23586;SDS011;11971;51.148;4.104;2022-07-17T08:49:29;4.80;;;1.80;;
23586;SDS011;11971;51.148;4.104;2022-07-17T08:51:59;7.13;;;1.98;;
23586;SDS011;11971;51.148;4.104;2022-07-17T08:54:27;6.13;;;1.60;;
23586;SDS011;11971;51.148;4.104;2022-07-17T08:56:54;4.93;;;1.75;;
23586;SDS011;11971;51.148;4.104;2022-07-17T08:59:22;9.45;;;2.00;;
23586;SDS011;11971;51.148;4.104;2022-07-17T09:01:49;2.95;;;1.48;;
23586;SDS011;11971;51.148;4.104;2022-07-17T09:04:16;5.38;;;1.75;;
23586;SDS011;11971;51.148;4.104;2022-07-17T09:06:45;4.05;;;1.63;;
23586;SDS011;11971;51.148;4.104;2022-07-17T09:09:13;7.00;;;2.10;;
23586;SDS011;11971;51.148;4.104;2022-07-17T09:11:50;6.10;;;1.83;;
23586;SDS011;11971;51.148;4.104;2022-07-17T09:14:19;5.07;;;1.90;;
23586;SDS011;11971;51.148;4.104;2022-07-17T09:16:47;5.68;;;1.92;;
23586;SDS011;11971;51.148;4.104;2022-07-17T09:19:23;5.70;;;1.88;;
23586;SDS011;11971;51.148;4.104;2022-07-17T09:21:52;13.80;;;2.10;;
23586;SDS011;11971;51.148;4.104;2022-07-17T09:24:37;9.38;;;2.00;;
23586;SDS011;11971;51.148;4.104;2022-07-17T09:27:05;4.25;;;1.85;;
23586;SDS011;11971;51.148;4.104;2022-07-17T09:29:32;10.15;;;1.90;;
23586;SDS011;11971;51.148;4.104;2022-07-17T09:31:59;4.90;;;1.98;;
23586;SDS011;11971;51.148;4.104;2022-07-17T09:34:26;7.65;;;1.70;;
23586;SDS011;11971;51.148;4.104;2022-07-17T09:37:01;5.65;;;2.03;;
23586;SDS011;11971;51.148;4.104;2022-07-17T09:39:35;4.75;;;1.80;;
23586;SDS011;11971;51.148;4.104;2022-07-17T09:42:02;7.05;;;1.60;;
23586;SDS011;11971;51.148;4.104;2022-07-17T09:44:29;7.50;;;1.90;;
23586;SDS011;11971;51.148;4.104;2022-07-17T09:46:57;6.80;;;2.00;;
23586;SDS011;11971;51.148;4.104;2022-07-17T09:52:05;4.60;;;1.80;;
23586;SDS011;11971;51.148;4.104;2022-07-17T09:54:32;5.15;;;2.13;;
23586;SDS011;11971;51.148;4.104;2022-07-17T09:57:00;5.18;;;2.10;;
23586;SDS011;11971;51.148;4.104;2022-07-17T09:59:34;4.78;;;2.00;;
23586;SDS011;11971;51.148;4.104;2022-07-17T10:02:39;6.32;;;2.13;;
23586;SDS011;11971;51.148;4.104;2022-07-17T10:05:07;7.78;;;2.08;;
23586;SDS011;11971;51.148;4.104;2022-07-17T10:07:46;5.63;;;2.13;;
23586;SDS011;11971;51.148;4.104;2022-07-17T10:12:41;5.40;;;2.40;;
23586;SDS011;11971;51.148;4.104;2022-07-17T10:15:09;4.70;;;2.47;;
23586;SDS011;11971;51.148;4.104;2022-07-17T10:18:04;6.15;;;2.30;;
23586;SDS011;11971;51.148;4.104;2022-07-17T10:20:32;5.25;;;2.17;;
23586;SDS011;11971;51.148;4.104;2022-07-17T10:23:10;4.28;;;2.28;;
23586;SDS011;11971;51.148;4.104;2022-07-17T10:25:39;7.03;;;2.30;;
23586;SDS011;11971;51.148;4.104;2022-07-17T10:30:40;7.28;;;2.95;;
23586;SDS011;11971;51.148;4.104;2022-07-17T10:33:08;5.60;;;2.67;;
23586;SDS011;11971;51.148;4.104;2022-07-17T10:35:42;6.10;;;2.17;;
23586;SDS011;11971;51.148;4.104;2022-07-17T10:38:13;5.05;;;2.33;;
23586;SDS011;11971;51.148;4.104;2022-07-17T10:40:41;6.07;;;2.28;;
23586;SDS011;11971;51.148;4.104;2022-07-17T10:43:09;7.15;;;2.28;;
23586;SDS011;11971;51.148;4.104;2022-07-17T10:45:37;6.05;;;2.30;;
23586;SDS011;11971;51.148;4.104;2022-07-17T10:48:08;5.78;;;2.50;;
23586;SDS011;11971;51.148;4.104;2022-07-17T10:50:36;5.20;;;2.50;;
23586;SDS011;11971;51.148;4.104;2022-07-17T10:53:05;5.55;;;2.30;;
23586;SDS011;11971;51.148;4.104;2022-07-17T10:58:12;6.55;;;2.85;;
23586;SDS011;11971;51.148;4.104;2022-07-17T11:00:40;4.78;;;2.28;;
23586;SDS011;11971;51.148;4.104;2022-07-17T11:03:13;5.47;;;2.50;;
23586;SDS011;11971;51.148;4.104;2022-07-17T11:05:41;7.22;;;2.90;;
23586;SDS011;11971;51.148;4.104;2022-07-17T11:08:09;8.70;;;2.83;;
23586;SDS011;11971;51.148;4.104;2022-07-17T11:10:38;7.00;;;2.53;;
23586;SDS011;11971;51.148;4.104;2022-07-17T11:13:12;3.67;;;2.38;;
23586;SDS011;11971;51.148;4.104;2022-07-17T11:15:40;5.70;;;2.60;;
23586;SDS011;11971;51.148;4.104;2022-07-17T11:18:12;6.80;;;2.90;;
23586;SDS011;11971;51.148;4.104;2022-07-17T11:20:46;5.53;;;2.83;;
23586;SDS011;11971;51.148;4.104;2022-07-17T11:23:14;4.05;;;2.47;;
23586;SDS011;11971;51.148;4.104;2022-07-17T11:25:50;5.22;;;2.55;;
23586;SDS011;11971;51.148;4.104;2022-07-17T11:28:27;6.78;;;2.83;;
23586;SDS011;11971;51.148;4.104;2022-07-17T11:30:55;4.88;;;2.85;;
23586;SDS011;11971;51.148;4.104;2022-07-17T11:33:22;5.63;;;2.70;;
23586;SDS011;11971;51.148;4.104;2022-07-17T11:35:52;4.20;;;2.65;;
23586;SDS011;11971;51.148;4.104;2022-07-17T11:38:26;5.93;;;3.13;;
23586;SDS011;11971;51.148;4.104;2022-07-17T11:41:12;5.65;;;3.00;;
23586;SDS011;11971;51.148;4.104;2022-07-17T11:46:35;7.65;;;3.05;;
23586;SDS011;11971;51.148;4.104;2022-07-17T11:49:23;5.15;;;3.10;;
23586;SDS011;11971;51.148;4.104;2022-07-17T11:51:55;6.50;;;3.78;;
23586;SDS011;11971;51.148;4.104;2022-07-17T11:54:29;7.43;;;3.28;;
23586;SDS011;11971;51.148;4.104;2022-07-17T11:56:57;6.22;;;3.65;;
23586;SDS011;11971;51.148;4.104;2022-07-17T11:59:27;6.57;;;3.20;;
23586;SDS011;11971;51.148;4.104;2022-07-17T12:02:08;7.78;;;3.60;;
23586;SDS011;11971;51.148;4.104;2022-07-17T12:04:55;5.22;;;3.00;;
23586;SDS011;11971;51.148;4.104;2022-07-17T12:07:23;4.90;;;3.20;;
23586;SDS011;11971;51.148;4.104;2022-07-17T12:09:51;5.28;;;3.20;;
23586;SDS011;11971;51.148;4.104;2022-07-17T12:12:18;7.10;;;3.35;;
23586;SDS011;11971;51.148;4.104;2022-07-17T12:14:46;9.65;;;3.30;;
23586;SDS011;11971;51.148;4.104;2022-07-17T12:17:15;7.05;;;3.05;;
23586;SDS011;11971;51.148;4.104;2022-07-17T12:19:42;5.70;;;3.60;;
23586;SDS011;11971;51.148;4.104;2022-07-17T12:22:10;6.95;;;3.50;;
23586;SDS011;11971;51.148;4.104;2022-07-17T12:24:37;5.30;;;3.10;;
23586;SDS011;11971;51.148;4.104;2022-07-17T12:27:05;6.27;;;3.57;;
23586;SDS011;11971;51.148;4.104;2022-07-17T12:29:33;5.50;;;3.20;;
23586;SDS011;11971;51.148;4.104;2022-07-17T12:32:04;4.72;;;3.17;;
23586;SDS011;11971;51.148;4.104;2022-07-17T12:34:33;8.43;;;3.40;;
23586;SDS011;11971;51.148;4.104;2022-07-17T12:37:01;5.70;;;3.78;;
23586;SDS011;11971;51.148;4.104;2022-07-17T12:39:28;6.53;;;3.85;;
23586;SDS011;11971;51.148;4.104;2022-07-17T12:41:56;5.57;;;3.70;;
23586;SDS011;11971;51.148;4.104;2022-07-17T12:44:24;6.40;;;3.85;;
23586;SDS011;11971;51.148;4.104;2022-07-17T12:46:51;5.95;;;3.65;;
23586;SDS011;11971;51.148;4.104;2022-07-17T12:49:18;7.18;;;4.03;;
23586;SDS011;11971;51.148;4.104;2022-07-17T12:51:47;7.28;;;3.70;;
23586;SDS011;11971;51.148;4.104;2022-07-17T12:54:14;6.20;;;3.67;;
23586;SDS011;11971;51.148;4.104;2022-07-17T12:56:42;7.05;;;3.45;;
23586;SDS011;11971;51.148;4.104;2022-07-17T12:59:09;6.93;;;3.60;;
23586;SDS011;11971;51.148;4.104;2022-07-17T13:01:36;6.68;;;3.95;;
23586;SDS011;11971;51.148;4.104;2022-07-17T13:04:03;5.50;;;3.42;;
23586;SDS011;11971;51.148;4.104;2022-07-17T13:06:31;6.40;;;3.95;;
23586;SDS011;11971;51.148;4.104;2022-07-17T13:09:00;6.10;;;3.45;;
23586;SDS011;11971;51.148;4.104;2022-07-17T13:11:27;5.63;;;3.58;;
23586;SDS011;11971;51.148;4.104;2022-07-17T13:13:54;5.85;;;3.80;;
23586;SDS011;11971;51.148;4.104;2022-07-17T13:16:22;7.35;;;4.10;;
23586;SDS011;11971;51.148;4.104;2022-07-17T13:18:49;8.73;;;4.03;;
23586;SDS011;11971;51.148;4.104;2022-07-17T13:21:16;9.73;;;3.80;;
23586;SDS011;11971;51.148;4.104;2022-07-17T13:23:44;5.70;;;3.85;;
23586;SDS011;11971;51.148;4.104;2022-07-17T13:26:12;6.95;;;4.10;;
23586;SDS011;11971;51.148;4.104;2022-07-17T13:28:40;9.73;;;3.90;;
23586;SDS011;11971;51.148;4.104;2022-07-17T13:31:07;7.22;;;3.97;;
23586;SDS011;11971;51.148;4.104;2022-07-17T13:33:34;8.85;;;3.78;;
23586;SDS011;11971;51.148;4.104;2022-07-17T13:36:02;5.47;;;3.85;;
23586;SDS011;11971;51.148;4.104;2022-07-17T13:38:29;7.43;;;3.72;;
23586;SDS011;11971;51.148;4.104;2022-07-17T13:40:57;7.75;;;3.60;;
23586;SDS011;11971;51.148;4.104;2022-07-17T13:43:25;8.15;;;3.75;;
23586;SDS011;11971;51.148;4.104;2022-07-17T13:48:20;7.05;;;4.07;;
23586;SDS011;11971;51.148;4.104;2022-07-17T13:50:47;6.05;;;3.85;;
23586;SDS011;11971;51.148;4.104;2022-07-17T13:53:14;7.47;;;3.70;;
23586;SDS011;11971;51.148;4.104;2022-07-17T13:55:42;22.90;;;5.07;;
23586;SDS011;11971;51.148;4.104;2022-07-17T13:58:09;5.78;;;3.88;;
23586;SDS011;11971;51.148;4.104;2022-07-17T14:00:48;7.13;;;3.92;;
23586;SDS011;11971;51.148;4.104;2022-07-17T14:03:18;7.28;;;4.32;;
23586;SDS011;11971;51.148;4.104;2022-07-17T14:05:47;5.55;;;3.60;;
23586;SDS011;11971;51.148;4.104;2022-07-17T14:08:15;7.70;;;4.10;;
23586;SDS011;11971;51.148;4.104;2022-07-17T14:10:42;7.75;;;4.32;;
23586;SDS011;11971;51.148;4.104;2022-07-17T14:13:09;6.38;;;3.83;;
23586;SDS011;11971;51.148;4.104;2022-07-17T14:15:38;6.40;;;3.90;;
23586;SDS011;11971;51.148;4.104;2022-07-17T14:18:05;11.65;;;4.28;;
23586;SDS011;11971;51.148;4.104;2022-07-17T14:20:33;6.15;;;3.75;;
23586;SDS011;11971;51.148;4.104;2022-07-17T14:23:00;5.88;;;3.88;;
23586;SDS011;11971;51.148;4.104;2022-07-17T14:25:27;6.65;;;4.10;;
23586;SDS011;11971;51.148;4.104;2022-07-17T14:27:55;6.32;;;3.90;;
23586;SDS011;11971;51.148;4.104;2022-07-17T14:30:22;4.57;;;3.70;;
23586;SDS011;11971;51.148;4.104;2022-07-17T14:32:51;5.15;;;3.50;;
23586;SDS011;11971;51.148;4.104;2022-07-17T14:35:18;8.00;;;4.72;;
23586;SDS011;11971;51.148;4.104;2022-07-17T14:37:46;6.72;;;3.72;;
23586;SDS011;11971;51.148;4.104;2022-07-17T14:40:13;5.82;;;3.33;;
23586;SDS011;11971;51.148;4.104;2022-07-17T14:42:41;4.80;;;3.42;;
23586;SDS011;11971;51.148;4.104;2022-07-17T14:45:08;4.97;;;3.60;;
23586;SDS011;11971;51.148;4.104;2022-07-17T14:47:37;5.78;;;3.80;;
23586;SDS011;11971;51.148;4.104;2022-07-17T14:52:35;4.72;;;3.63;;
23586;SDS011;11971;51.148;4.104;2022-07-17T14:57:29;4.78;;;3.50;;
23586;SDS011;11971;51.148;4.104;2022-07-17T14:59:57;5.22;;;3.25;;
23586;SDS011;11971;51.148;4.104;2022-07-17T15:02:24;5.45;;;3.75;;
23586;SDS011;11971;51.148;4.104;2022-07-17T15:04:52;6.85;;;3.83;;
23586;SDS011;11971;51.148;4.104;2022-07-17T15:07:19;4.75;;;3.50;;
23586;SDS011;11971;51.148;4.104;2022-07-17T15:09:48;5.18;;;3.58;;
23586;SDS011;11971;51.148;4.104;2022-07-17T15:14:42;6.00;;;3.97;;
23586;SDS011;11971;51.148;4.104;2022-07-17T15:17:10;6.10;;;4.10;;
23586;SDS011;11971;51.148;4.104;2022-07-17T15:19:37;5.70;;;3.78;;
23586;SDS011;11971;51.148;4.104;2022-07-17T15:22:04;6.10;;;4.00;;
23586;SDS011;11971;51.148;4.104;2022-07-17T15:24:31;6.20;;;3.58;;
23586;SDS011;11971;51.148;4.104;2022-07-17T15:27:00;4.78;;;3.35;;